sensor_id;sensor_type;location;lat;lon;timestamp;pressure;altitude;pressure_sealevel;temperature;humidity
46394;BME280;32099;53.588;10.176;2023-07-20T00:01:01;100853.75;;;15.06;75.86
46394;BME280;32099;53.588;10.176;2023-07-20T00:03:27;100857.38;;;15.07;76.26
46394;BME280;32099;53.588;10.176;2023-07-20T00:05:52;100856.28;;;15.08;76.62
46394;BME280;32099;53.588;10.176;2023-07-20T00:08:17;100851.66;;;15.08;76.55
46394;BME280;32099;53.588;10.176;2023-07-20T00:10:43;100851.25;;;15.11;76.39
46394;BME280;32099;53.588;10.176;2023-07-20T00:13:09;100847.00;;;15.16;76.58
46394;BME280;32099;53.588;10.176;2023-07-20T00:15:36;100838.75;;;15.16;76.49
46394;BME280;32099;53.588;10.176;2023-07-20T00:18:02;100841.09;;;15.19;76.36
46394;BME280;32099;53.588;10.176;2023-07-20T00:20:28;100830.53;;;15.22;76.30
46394;BME280;32099;53.588;10.176;2023-07-20T00:22:54;100829.88;;;15.27;76.56
46394;BME280;32099;53.588;10.176;2023-07-20T00:25:20;100833.25;;;15.29;76.48
46394;BME280;32099;53.588;10.176;2023-07-20T00:27:45;100831.97;;;15.32;76.51
46394;BME280;32099;53.588;10.176;2023-07-20T00:30:11;100838.75;;;15.36;76.66
46394;BME280;32099;53.588;10.176;2023-07-20T00:32:36;100843.19;;;15.37;77.65
46394;BME280;32099;53.588;10.176;2023-07-20T00:35:02;100843.19;;;15.37;77.04
46394;BME280;32099;53.588;10.176;2023-07-20T00:37:27;100839.81;;;15.41;76.88
46394;BME280;32099;53.588;10.176;2023-07-20T00:39:53;100843.59;;;15.47;76.79
46394;BME280;32099;53.588;10.176;2023-07-20T00:42:18;100840.44;;;15.50;76.85
46394;BME280;32099;53.588;10.176;2023-07-20T00:44:43;100838.09;;;15.54;76.77
46394;BME280;32099;53.588;10.176;2023-07-20T00:47:08;100834.72;;;15.58;76.84
46394;BME280;32099;53.588;10.176;2023-07-20T00:49:34;100836.59;;;15.65;76.18
46394;BME280;32099;53.588;10.176;2023-07-20T00:52:00;100839.53;;;15.70;76.22
46394;BME280;32099;53.588;10.176;2023-07-20T00:54:28;100832.75;;;15.72;77.29
46394;BME280;32099;53.588;10.176;2023-07-20T00:56:53;100831.31;;;15.70;76.71
46394;BME280;32099;53.588;10.176;2023-07-20T00:59:19;100829.81;;;15.74;76.33
46394;BME280;32099;53.588;10.176;2023-07-20T01:01:45;100834.25;;;15.75;77.04
46394;BME280;32099;53.588;10.176;2023-07-20T01:04:10;100832.13;;;15.77;77.08
46394;BME280;32099;53.588;10.176;2023-07-20T01:34:14;100842.69;;;15.87;78.78
46394;BME280;32099;53.588;10.176;2023-07-20T01:36:42;100836.16;;;15.88;78.96
46394;BME280;32099;53.588;10.176;2023-07-20T01:39:09;100839.97;;;15.87;78.83
46394;BME280;32099;53.588;10.176;2023-07-20T01:41:35;100834.22;;;15.88;78.92
46394;BME280;32099;53.588;10.176;2023-07-20T01:44:03;100839.97;;;15.87;78.62
46394;BME280;32099;53.588;10.176;2023-07-20T01:46:29;100818.38;;;15.77;79.26
46394;BME280;32099;53.588;10.176;2023-07-20T01:48:54;100833.41;;;15.88;78.86
46394;BME280;32099;53.588;10.176;2023-07-20T01:51:20;100828.72;;;15.88;79.03
46394;BME280;32099;53.588;10.176;2023-07-20T01:53:45;100825.56;;;15.92;79.17
46394;BME280;32099;53.588;10.176;2023-07-20T01:56:10;100829.16;;;15.92;79.32
46394;BME280;32099;53.588;10.176;2023-07-20T01:58:37;100828.94;;;15.94;78.91
46394;BME280;32099;53.588;10.176;2023-07-20T02:01:03;100832.97;;;15.98;79.08
46394;BME280;32099;53.588;10.176;2023-07-20T02:03:28;100830.81;;;16.00;78.56
46394;BME280;32099;53.588;10.176;2023-07-20T02:05:54;100829.75;;;16.01;79.13
46394;BME280;32099;53.588;10.176;2023-07-20T02:08:19;100829.75;;;16.01;78.49
46394;BME280;32099;53.588;10.176;2023-07-20T02:10:48;100828.28;;;15.98;79.02
46394;BME280;32099;53.588;10.176;2023-07-20T02:13:14;100831.91;;;15.99;79.20
46394;BME280;32099;53.588;10.176;2023-07-20T02:15:39;100827.84;;;16.01;79.08
46394;BME280;32099;53.588;10.176;2023-07-20T02:18:06;100825.09;;;16.01;78.81
46394;BME280;32099;53.588;10.176;2023-07-20T02:20:31;100830.59;;;16.01;78.69
46394;BME280;32099;53.588;10.176;2023-07-20T02:22:57;100825.75;;;16.03;78.92
46394;BME280;32099;53.588;10.176;2023-07-20T02:25:22;100835.06;;;16.02;78.58
46394;BME280;32099;53.588;10.176;2023-07-20T02:27:47;100835.25;;;16.01;79.15
46394;BME280;32099;53.588;10.176;2023-07-20T02:30:12;100832.50;;;16.01;79.21
46394;BME280;32099;53.588;10.176;2023-07-20T02:32:38;100836.09;;;16.01;79.67
46394;BME280;32099;53.588;10.176;2023-07-20T02:35:04;100835.47;;;15.99;79.16
46394;BME280;32099;53.588;10.176;2023-07-20T02:37:30;100842.66;;;16.00;78.80
46394;BME280;32099;53.588;10.176;2023-07-20T02:39:55;100844.56;;;16.00;79.10
46394;BME280;32099;53.588;10.176;2023-07-20T02:42:21;100842.91;;;15.99;79.55
46394;BME280;32099;53.588;10.176;2023-07-20T02:44:47;100843.31;;;15.96;80.01
46394;BME280;32099;53.588;10.176;2023-07-20T02:47:13;100842.69;;;15.94;79.62
46394;BME280;32099;53.588;10.176;2023-07-20T02:49:38;100848.59;;;15.97;79.54
46394;BME280;32099;53.588;10.176;2023-07-20T02:52:04;100849.84;;;16.01;79.64
46394;BME280;32099;53.588;10.176;2023-07-20T02:54:29;100837.59;;;15.97;79.96
46394;BME280;32099;53.588;10.176;2023-07-20T02:56:55;100851.56;;;16.02;79.65
46394;BME280;32099;53.588;10.176;2023-07-20T02:59:21;100845.19;;;16.02;79.78
46394;BME280;32099;53.588;10.176;2023-07-20T03:01:46;100844.38;;;16.01;79.61
46394;BME280;32099;53.588;10.176;2023-07-20T03:04:11;100844.56;;;16.00;79.69
46394;BME280;32099;53.588;10.176;2023-07-20T03:06:36;100834.03;;;15.90;79.62
46394;BME280;32099;53.588;10.176;2023-07-20T03:09:02;100837.63;;;15.91;80.23
46394;BME280;32099;53.588;10.176;2023-07-20T03:11:32;100835.91;;;15.89;79.75
46394;BME280;32099;53.588;10.176;2023-07-20T03:13:58;100840.59;;;15.89;79.78
46394;BME280;32099;53.588;10.176;2023-07-20T03:16:24;100841.41;;;15.89;80.06
46394;BME280;32099;53.588;10.176;2023-07-20T03:18:50;100850.31;;;15.92;79.74
46394;BME280;32099;53.588;10.176;2023-07-20T03:21:16;100849.66;;;15.89;80.08
46394;BME280;32099;53.588;10.176;2023-07-20T03:23:41;100853.91;;;15.92;79.63
46394;BME280;32099;53.588;10.176;2023-07-20T03:26:07;100848.81;;;15.96;79.58
46394;BME280;32099;53.588;10.176;2023-07-20T03:28:34;100848.19;;;15.94;79.48
46394;BME280;32099;53.588;10.176;2023-07-20T03:31:00;100850.09;;;15.93;79.92
46394;BME280;32099;53.588;10.176;2023-07-20T03:33:26;100846.91;;;15.89;80.29
46394;BME280;32099;53.588;10.176;2023-07-20T03:35:53;100858.97;;;15.88;79.95
46394;BME280;32099;53.588;10.176;2023-07-20T03:38:19;100861.53;;;15.90;80.17
46394;BME280;32099;53.588;10.176;2023-07-20T03:43:19;100858.34;;;15.93;80.40
46394;BME280;32099;53.588;10.176;2023-07-20T03:45:45;100859.63;;;15.91;81.31
46394;BME280;32099;53.588;10.176;2023-07-20T03:48:12;100858.97;;;15.88;80.18
46394;BME280;32099;53.588;10.176;2023-07-20T03:50:38;100852.66;;;15.88;80.10
46394;BME280;32099;53.588;10.176;2023-07-20T03:53:03;100858.38;;;15.86;80.76
46394;BME280;32099;53.588;10.176;2023-07-20T03:55:28;100861.31;;;15.85;80.49
46394;BME280;32099;53.588;10.176;2023-07-20T03:57:54;100859.22;;;15.87;82.16
46394;BME280;32099;53.588;10.176;2023-07-20T04:00:19;100864.25;;;15.83;80.48
46394;BME280;32099;53.588;10.176;2023-07-20T04:02:44;100862.34;;;15.84;80.49
46394;BME280;32099;53.588;10.176;2023-07-20T04:05:10;100862.59;;;15.89;80.25
46394;BME280;32099;53.588;10.176;2023-07-20T04:07:35;100863.00;;;15.93;80.29
46394;BME280;32099;53.588;10.176;2023-07-20T04:10:00;100862.97;;;15.99;80.86
46394;BME280;32099;53.588;10.176;2023-07-20T04:12:26;100864.91;;;15.92;80.78
46394;BME280;32099;53.588;10.176;2023-07-20T04:14:51;100865.34;;;15.89;81.05
46394;BME280;32099;53.588;10.176;2023-07-20T04:17:17;100870.41;;;15.92;80.98
46394;BME280;32099;53.588;10.176;2023-07-20T04:19:43;100875.25;;;15.97;81.51
46394;BME280;32099;53.588;10.176;2023-07-20T04:22:09;100870.81;;;15.96;80.31
46394;BME280;32099;53.588;10.176;2023-07-20T04:24:34;100874.22;;;15.98;80.13
46394;BME280;32099;53.588;10.176;2023-07-20T04:26:59;100873.56;;;16.02;79.78
46394;BME280;32099;53.588;10.176;2023-07-20T04:29:25;100882.44;;;16.04;79.81
46394;BME280;32099;53.588;10.176;2023-07-20T04:31:50;100885.78;;;16.07;79.58
46394;BME280;32099;53.588;10.176;2023-07-20T04:34:15;100880.28;;;16.07;79.83
46394;BME280;32099;53.588;10.176;2023-07-20T04:36:41;100887.47;;;16.08;80.01
46394;BME280;32099;53.588;10.176;2023-07-20T04:39:06;100889.59;;;16.06;80.07
46394;BME280;32099;53.588;10.176;2023-07-20T04:41:33;100882.84;;;16.08;80.15
46394;BME280;32099;53.588;10.176;2023-07-20T04:43:58;100881.78;;;16.09;80.05
46394;BME280;32099;53.588;10.176;2023-07-20T04:46:24;100879.63;;;16.11;79.80
46394;BME280;32099;53.588;10.176;2023-07-20T04:48:49;100876.25;;;16.16;79.68
46394;BME280;32099;53.588;10.176;2023-07-20T04:51:14;100878.97;;;16.23;79.59
46394;BME280;32099;53.588;10.176;2023-07-20T04:53:39;100878.09;;;16.29;79.49
46394;BME280;32099;53.588;10.176;2023-07-20T04:56:05;100882.31;;;16.31;79.21
46394;BME280;32099;53.588;10.176;2023-07-20T04:58:30;100872.34;;;16.37;79.29
46394;BME280;32099;53.588;10.176;2023-07-20T05:00:55;100881.47;;;16.38;79.83
46394;BME280;32099;53.588;10.176;2023-07-20T05:03:21;100885.06;;;16.38;79.43
46394;BME280;32099;53.588;10.176;2023-07-20T05:05:46;100886.09;;;16.44;79.59
46394;BME280;32099;53.588;10.176;2023-07-20T05:08:13;100880.34;;;16.45;79.01
46394;BME280;32099;53.588;10.176;2023-07-20T05:10:38;100884.19;;;16.44;78.78
46394;BME280;32099;53.588;10.176;2023-07-20T05:13:03;100880.34;;;16.45;78.91
46394;BME280;32099;53.588;10.176;2023-07-20T05:15:29;100874.25;;;16.43;80.39
46394;BME280;32099;53.588;10.176;2023-07-20T05:17:54;100872.97;;;16.39;79.18
46394;BME280;32099;53.588;10.176;2023-07-20T05:20:19;100865.78;;;16.38;79.92
46394;BME280;32099;53.588;10.176;2023-07-20T05:22:45;100874.91;;;16.39;79.55
46394;BME280;32099;53.588;10.176;2023-07-20T05:25:10;100883.75;;;16.41;79.65
46394;BME280;32099;53.588;10.176;2023-07-20T05:27:36;100880.19;;;16.40;79.53
46394;BME280;32099;53.588;10.176;2023-07-20T05:30:02;100883.56;;;16.42;79.72
46394;BME280;32099;53.588;10.176;2023-07-20T05:32:28;100886.34;;;16.35;80.32
46394;BME280;32099;53.588;10.176;2023-07-20T05:34:54;100876.78;;;16.38;80.09
46394;BME280;32099;53.588;10.176;2023-07-20T05:37:20;100885.69;;;16.40;80.80
46394;BME280;32099;53.588;10.176;2023-07-20T05:39:45;100883.56;;;16.42;80.14
46394;BME280;32099;53.588;10.176;2023-07-20T05:42:10;100892.63;;;16.49;79.39
46394;BME280;32099;53.588;10.176;2023-07-20T05:44:36;100878.59;;;16.58;79.26
46394;BME280;32099;53.588;10.176;2023-07-20T05:47:01;100875.13;;;16.69;78.53
46394;BME280;32099;53.588;10.176;2023-07-20T05:49:27;100882.53;;;16.75;78.95
46394;BME280;32099;53.588;10.176;2023-07-20T05:51:54;100881.63;;;16.81;78.98
46394;BME280;32099;53.588;10.176;2023-07-20T05:54:20;100879.03;;;17.00;77.65
46394;BME280;32099;53.588;10.176;2023-07-20T05:56:46;100875.84;;;17.29;77.55
46394;BME280;32099;53.588;10.176;2023-07-20T05:59:12;100871.03;;;17.42;77.05
46394;BME280;32099;53.588;10.176;2023-07-20T06:01:38;100890.38;;;17.61;76.72
46394;BME280;32099;53.588;10.176;2023-07-20T06:04:03;100878.84;;;17.71;76.48
46394;BME280;32099;53.588;10.176;2023-07-20T06:06:28;100877.31;;;17.75;76.53
46394;BME280;32099;53.588;10.176;2023-07-20T06:08:54;100888.56;;;17.73;75.85
46394;BME280;32099;53.588;10.176;2023-07-20T06:11:19;100895.63;;;17.69;76.49
46394;BME280;32099;53.588;10.176;2023-07-20T06:13:45;100880.59;;;17.65;76.37
46394;BME280;32099;53.588;10.176;2023-07-20T06:16:10;100886.22;;;17.77;76.60
46394;BME280;32099;53.588;10.176;2023-07-20T06:18:35;100888.22;;;17.88;75.66
46394;BME280;32099;53.588;10.176;2023-07-20T06:21:01;100887.97;;;17.90;75.57
46394;BME280;32099;53.588;10.176;2023-07-20T06:23:26;100884.94;;;17.98;75.07
46394;BME280;32099;53.588;10.176;2023-07-20T06:25:52;100886.72;;;18.11;75.36
46394;BME280;32099;53.588;10.176;2023-07-20T06:28:17;100888.94;;;18.21;73.83
46394;BME280;32099;53.588;10.176;2023-07-20T06:30:43;100897.75;;;18.30;71.84
46394;BME280;32099;53.588;10.176;2023-07-20T06:33:08;100892.47;;;18.28;73.51
46394;BME280;32099;53.588;10.176;2023-07-20T06:35:34;100900.22;;;18.19;74.21
46394;BME280;32099;53.588;10.176;2023-07-20T06:38:00;100903.41;;;18.16;74.69
46394;BME280;32099;53.588;10.176;2023-07-20T06:40:26;100904.34;;;18.10;74.10
46394;BME280;32099;53.588;10.176;2023-07-20T06:42:51;100896.78;;;18.06;73.10
46394;BME280;32099;53.588;10.176;2023-07-20T06:45:16;100898.53;;;18.18;73.46
46394;BME280;32099;53.588;10.176;2023-07-20T06:47:42;100895.53;;;18.39;72.61
46394;BME280;32099;53.588;10.176;2023-07-20T06:50:07;100898.72;;;18.54;72.38
46394;BME280;32099;53.588;10.176;2023-07-20T06:52:33;100891.19;;;18.61;71.78
46394;BME280;32099;53.588;10.176;2023-07-20T06:54:59;100895.94;;;18.73;72.17
46394;BME280;32099;53.588;10.176;2023-07-20T06:57:24;100886.13;;;18.89;71.47
46394;BME280;32099;53.588;10.176;2023-07-20T06:59:50;100894.78;;;18.92;71.43
46394;BME280;32099;53.588;10.176;2023-07-20T07:02:15;100902.91;;;18.75;70.07
46394;BME280;32099;53.588;10.176;2023-07-20T07:04:41;100903.66;;;18.52;70.67
46394;BME280;32099;53.588;10.176;2023-07-20T07:07:06;100898.41;;;18.44;71.45
46394;BME280;32099;53.588;10.176;2023-07-20T07:09:32;100905.91;;;18.55;69.74
46394;BME280;32099;53.588;10.176;2023-07-20T07:11:57;100899.22;;;18.63;70.07
46394;BME280;32099;53.588;10.176;2023-07-20T07:14:22;100895.44;;;18.76;69.19
46394;BME280;32099;53.588;10.176;2023-07-20T07:16:48;100905.84;;;18.92;69.91
46394;BME280;32099;53.588;10.176;2023-07-20T07:19:13;100904.78;;;18.93;68.51
46394;BME280;32099;53.588;10.176;2023-07-20T07:21:38;100892.22;;;18.98;66.05
46394;BME280;32099;53.588;10.176;2023-07-20T07:24:03;100889.81;;;19.13;66.88
46394;BME280;32099;53.588;10.176;2023-07-20T07:26:30;100882.31;;;19.44;64.12
46394;BME280;32099;53.588;10.176;2023-07-20T07:28:55;100901.09;;;19.66;64.27
46394;BME280;32099;53.588;10.176;2023-07-20T07:31:20;100900.09;;;19.72;64.99
46394;BME280;32099;53.588;10.176;2023-07-20T07:33:46;100899.00;;;19.49;65.27
46394;BME280;32099;53.588;10.176;2023-07-20T07:36:11;100905.94;;;19.16;65.91
46394;BME280;32099;53.588;10.176;2023-07-20T07:38:36;100896.25;;;18.95;67.53
46394;BME280;32099;53.588;10.176;2023-07-20T07:41:02;100902.66;;;18.77;66.97
46394;BME280;32099;53.588;10.176;2023-07-20T07:43:27;100905.66;;;18.75;66.96
46394;BME280;32099;53.588;10.176;2023-07-20T07:45:53;100902.84;;;18.94;67.01
46394;BME280;32099;53.588;10.176;2023-07-20T07:48:20;100904.81;;;19.05;67.80
46394;BME280;32099;53.588;10.176;2023-07-20T07:50:46;100908.09;;;19.14;67.79
46394;BME280;32099;53.588;10.176;2023-07-20T07:53:11;100910.50;;;19.10;67.84
46394;BME280;32099;53.588;10.176;2023-07-20T07:55:36;100922.09;;;19.01;70.01
46394;BME280;32099;53.588;10.176;2023-07-20T07:58:02;100927.56;;;18.89;67.56
46394;BME280;32099;53.588;10.176;2023-07-20T08:00:27;100933.97;;;18.71;69.87
46394;BME280;32099;53.588;10.176;2023-07-20T08:02:52;100926.81;;;18.51;70.82
46394;BME280;32099;53.588;10.176;2023-07-20T08:05:18;100921.06;;;18.34;69.61
46394;BME280;32099;53.588;10.176;2023-07-20T08:07:43;100924.59;;;18.23;70.75
46394;BME280;32099;53.588;10.176;2023-07-20T08:10:09;100924.41;;;18.36;70.61
46394;BME280;32099;53.588;10.176;2023-07-20T08:12:34;100924.78;;;18.58;70.20
46394;BME280;32099;53.588;10.176;2023-07-20T08:15:00;100935.56;;;18.97;67.42
46394;BME280;32099;53.588;10.176;2023-07-20T08:17:25;100921.13;;;19.37;69.32
46394;BME280;32099;53.588;10.176;2023-07-20T08:19:51;100927.41;;;19.80;67.77
46394;BME280;32099;53.588;10.176;2023-07-20T08:22:16;100918.03;;;20.17;64.83
46394;BME280;32099;53.588;10.176;2023-07-20T08:24:41;100914.22;;;20.47;64.90
46394;BME280;32099;53.588;10.176;2023-07-20T08:27:07;100916.16;;;20.87;65.97
46394;BME280;32099;53.588;10.176;2023-07-20T08:29:34;100922.88;;;21.20;62.85
46394;BME280;32099;53.588;10.176;2023-07-20T08:32:00;100920.31;;;21.19;61.34
46394;BME280;32099;53.588;10.176;2023-07-20T08:34:25;100925.50;;;20.98;62.85
46394;BME280;32099;53.588;10.176;2023-07-20T08:36:50;100925.75;;;20.96;62.04
46394;BME280;32099;53.588;10.176;2023-07-20T08:39:16;100926.63;;;21.14;60.58
46394;BME280;32099;53.588;10.176;2023-07-20T08:41:42;100922.63;;;21.39;59.66
46394;BME280;32099;53.588;10.176;2023-07-20T08:44:08;100918.16;;;21.55;59.80
46394;BME280;32099;53.588;10.176;2023-07-20T08:46:33;100921.88;;;21.43;58.47
46394;BME280;32099;53.588;10.176;2023-07-20T08:49:02;100925.41;;;21.39;59.13
46394;BME280;32099;53.588;10.176;2023-07-20T08:51:28;100925.50;;;21.44;59.01
46394;BME280;32099;53.588;10.176;2023-07-20T08:53:55;100930.13;;;21.72;59.46
46394;BME280;32099;53.588;10.176;2023-07-20T08:56:20;100938.28;;;21.96;57.44
46394;BME280;32099;53.588;10.176;2023-07-20T08:58:47;100931.78;;;22.08;56.67
46394;BME280;32099;53.588;10.176;2023-07-20T09:01:13;100928.13;;;22.07;57.72
46394;BME280;32099;53.588;10.176;2023-07-20T09:03:39;100925.31;;;22.02;56.48
46394;BME280;32099;53.588;10.176;2023-07-20T09:06:05;100922.28;;;21.86;58.71
46394;BME280;32099;53.588;10.176;2023-07-20T09:08:30;100927.44;;;21.61;56.12
46394;BME280;32099;53.588;10.176;2023-07-20T09:10:56;100948.56;;;21.16;54.84
46394;BME280;32099;53.588;10.176;2023-07-20T09:13:22;100943.53;;;20.72;58.74
46394;BME280;32099;53.588;10.176;2023-07-20T09:15:47;100939.34;;;20.69;59.29
46394;BME280;32099;53.588;10.176;2023-07-20T09:18:24;100944.31;;;20.96;59.37
46394;BME280;32099;53.588;10.176;2023-07-20T09:20:50;100938.06;;;21.35;58.20
46394;BME280;32099;53.588;10.176;2023-07-20T09:23:15;100934.66;;;21.62;56.66
46394;BME280;32099;53.588;10.176;2023-07-20T09:25:41;100938.09;;;21.69;54.72
46394;BME280;32099;53.588;10.176;2023-07-20T09:28:07;100928.66;;;21.87;56.00
46394;BME280;32099;53.588;10.176;2023-07-20T09:30:32;100926.16;;;22.25;54.44
46394;BME280;32099;53.588;10.176;2023-07-20T09:32:57;100933.31;;;22.60;54.67
46394;BME280;32099;53.588;10.176;2023-07-20T09:35:23;100930.25;;;22.61;54.35
46394;BME280;32099;53.588;10.176;2023-07-20T09:37:58;100939.88;;;22.31;56.51
46394;BME280;32099;53.588;10.176;2023-07-20T09:40:25;100966.59;;;21.64;61.35
46394;BME280;32099;53.588;10.176;2023-07-20T09:42:54;100966.41;;;20.91;63.62
46394;BME280;32099;53.588;10.176;2023-07-20T09:45:49;100970.59;;;20.29;64.30
46394;BME280;32099;53.588;10.176;2023-07-20T09:48:15;100957.66;;;20.06;66.01
46394;BME280;32099;53.588;10.176;2023-07-20T09:50:40;100967.03;;;20.04;66.33
46394;BME280;32099;53.588;10.176;2023-07-20T09:53:07;100954.00;;;20.29;66.24
46394;BME280;32099;53.588;10.176;2023-07-20T09:55:36;100959.56;;;20.70;68.17
46394;BME280;32099;53.588;10.176;2023-07-20T09:58:02;100957.03;;;21.09;62.20
46394;BME280;32099;53.588;10.176;2023-07-20T10:00:27;100960.59;;;21.21;61.05
46394;BME280;32099;53.588;10.176;2023-07-20T10:02:53;100954.97;;;21.33;61.77
46394;BME280;32099;53.588;10.176;2023-07-20T10:05:20;100953.91;;;21.51;64.04
46394;BME280;32099;53.588;10.176;2023-07-20T10:07:47;100949.13;;;21.64;58.99
46394;BME280;32099;53.588;10.176;2023-07-20T10:10:14;100951.75;;;21.70;59.63
46394;BME280;32099;53.588;10.176;2023-07-20T10:12:42;100943.91;;;21.84;59.20
46394;BME280;32099;53.588;10.176;2023-07-20T10:15:10;100944.56;;;21.92;58.61
46394;BME280;32099;53.588;10.176;2023-07-20T10:17:37;100941.00;;;22.13;59.69
46394;BME280;32099;53.588;10.176;2023-07-20T10:20:14;100944.72;;;22.41;58.58
46394;BME280;32099;53.588;10.176;2023-07-20T10:22:41;100945.72;;;22.52;57.18
46394;BME280;32099;53.588;10.176;2023-07-20T10:25:10;100932.34;;;22.71;57.40
46394;BME280;32099;53.588;10.176;2023-07-20T10:27:35;100940.00;;;22.86;56.92
46394;BME280;32099;53.588;10.176;2023-07-20T10:30:01;100929.91;;;22.80;54.45
46394;BME280;32099;53.588;10.176;2023-07-20T10:32:27;100929.75;;;22.64;57.35
46394;BME280;32099;53.588;10.176;2023-07-20T10:34:55;100930.00;;;22.63;55.66
46394;BME280;32099;53.588;10.176;2023-07-20T10:40:54;100931.13;;;22.23;55.14
46394;BME280;32099;53.588;10.176;2023-07-20T10:43:08;100927.09;;;21.74;58.34
46394;BME280;32099;53.588;10.176;2023-07-20T10:45:53;100929.84;;;21.57;58.25
46394;BME280;32099;53.588;10.176;2023-07-20T10:48:20;100947.41;;;21.46;58.28
46394;BME280;32099;53.588;10.176;2023-07-20T10:51:08;100941.59;;;21.30;61.19
46394;BME280;32099;53.588;10.176;2023-07-20T10:53:36;100942.22;;;20.74;63.76
46394;BME280;32099;53.588;10.176;2023-07-20T10:56:14;100941.09;;;20.46;65.77
46394;BME280;32099;53.588;10.176;2023-07-20T10:58:44;100943.44;;;20.66;66.42
46394;BME280;32099;53.588;10.176;2023-07-20T11:01:12;100948.88;;;21.02;65.73
46394;BME280;32099;53.588;10.176;2023-07-20T11:03:39;100950.19;;;21.29;65.32
46394;BME280;32099;53.588;10.176;2023-07-20T11:08:48;100947.66;;;21.27;64.34
46394;BME280;32099;53.588;10.176;2023-07-20T11:11:24;100947.13;;;21.13;64.35
46394;BME280;32099;53.588;10.176;2023-07-20T11:13:57;100949.84;;;20.96;64.74
46394;BME280;32099;53.588;10.176;2023-07-20T11:16:43;100943.38;;;20.90;62.83
46394;BME280;32099;53.588;10.176;2023-07-20T11:19:13;100947.88;;;20.79;61.41
46394;BME280;32099;53.588;10.176;2023-07-20T11:21:42;100960.72;;;20.45;63.10
46394;BME280;32099;53.588;10.176;2023-07-20T11:24:09;100964.38;;;20.10;67.83
46394;BME280;32099;53.588;10.176;2023-07-20T11:26:45;100968.97;;;19.92;68.27
46394;BME280;32099;53.588;10.176;2023-07-20T11:29:13;100973.47;;;19.74;68.65
46394;BME280;32099;53.588;10.176;2023-07-20T11:31:39;100978.84;;;19.46;69.50
46394;BME280;32099;53.588;10.176;2023-07-20T11:34:07;100971.31;;;19.22;70.72
46394;BME280;32099;53.588;10.176;2023-07-20T11:36:35;100974.88;;;19.11;72.24
46394;BME280;32099;53.588;10.176;2023-07-20T11:39:01;100975.97;;;19.10;71.40
46394;BME280;32099;53.588;10.176;2023-07-20T11:41:29;100967.97;;;19.20;71.74
46394;BME280;32099;53.588;10.176;2023-07-20T11:43:55;100954.88;;;19.27;70.62
46394;BME280;32099;53.588;10.176;2023-07-20T11:46:20;100962.50;;;19.44;70.70
46394;BME280;32099;53.588;10.176;2023-07-20T11:48:45;100951.44;;;19.56;71.84
46394;BME280;32099;53.588;10.176;2023-07-20T11:51:14;100960.34;;;19.70;72.13
46394;BME280;32099;53.588;10.176;2023-07-20T11:53:41;100955.94;;;19.81;70.39
46394;BME280;32099;53.588;10.176;2023-07-20T11:56:07;100949.13;;;19.95;69.93
46394;BME280;32099;53.588;10.176;2023-07-20T11:58:32;100947.53;;;19.99;65.75
46394;BME280;32099;53.588;10.176;2023-07-20T12:00:58;100955.47;;;19.96;66.72
46394;BME280;32099;53.588;10.176;2023-07-20T12:03:23;100948.97;;;20.02;67.76
46394;BME280;32099;53.588;10.176;2023-07-20T12:05:48;100953.66;;;20.13;67.12
46394;BME280;32099;53.588;10.176;2023-07-20T12:08:15;100966.41;;;20.26;66.20
46394;BME280;32099;53.588;10.176;2023-07-20T12:10:41;100978.09;;;20.28;65.69
46394;BME280;32099;53.588;10.176;2023-07-20T12:13:09;100985.56;;;20.16;64.31
46394;BME280;32099;53.588;10.176;2023-07-20T12:15:35;100985.44;;;19.99;65.48
46394;BME280;32099;53.588;10.176;2023-07-20T12:18:02;100975.91;;;19.83;65.72
46394;BME280;32099;53.588;10.176;2023-07-20T12:20:29;100979.88;;;19.75;66.62
46394;BME280;32099;53.588;10.176;2023-07-20T12:22:56;100982.97;;;19.67;64.71
46394;BME280;32099;53.588;10.176;2023-07-20T12:25:31;100980.63;;;19.40;65.10
46394;BME280;32099;53.588;10.176;2023-07-20T12:27:59;100990.31;;;19.19;67.41
46394;BME280;32099;53.588;10.176;2023-07-20T12:30:27;100999.00;;;19.04;68.57
46394;BME280;32099;53.588;10.176;2023-07-20T12:32:53;100999.56;;;18.94;69.83
46394;BME280;32099;53.588;10.176;2023-07-20T12:35:18;100987.50;;;18.88;70.17
46394;BME280;32099;53.588;10.176;2023-07-20T12:37:43;100983.75;;;18.83;70.35
46394;BME280;32099;53.588;10.176;2023-07-20T12:40:09;100987.13;;;18.85;70.72
46394;BME280;32099;53.588;10.176;2023-07-20T12:42:35;100991.94;;;18.89;71.18
46394;BME280;32099;53.588;10.176;2023-07-20T12:45:01;100992.81;;;18.90;69.62
46394;BME280;32099;53.588;10.176;2023-07-20T12:47:26;100983.38;;;18.98;70.25
46394;BME280;32099;53.588;10.176;2023-07-20T12:49:51;100990.88;;;19.09;69.86
46394;BME280;32099;53.588;10.176;2023-07-20T12:52:16;100984.31;;;19.22;69.26
46394;BME280;32099;53.588;10.176;2023-07-20T12:54:42;100983.50;;;19.33;70.19
46394;BME280;32099;53.588;10.176;2023-07-20T12:57:07;100976.78;;;19.41;68.46
46394;BME280;32099;53.588;10.176;2023-07-20T12:59:32;100981.25;;;19.42;69.74
46394;BME280;32099;53.588;10.176;2023-07-20T13:01:58;100988.78;;;19.35;67.35
46394;BME280;32099;53.588;10.176;2023-07-20T13:04:23;100988.38;;;19.19;68.43
46394;BME280;32099;53.588;10.176;2023-07-20T13:06:49;100981.63;;;19.15;70.99
46394;BME280;32099;53.588;10.176;2023-07-20T13:09:14;100976.34;;;19.14;69.00
46394;BME280;32099;53.588;10.176;2023-07-20T13:11:39;100983.44;;;19.21;70.58